Hillman, Michigan
Current Conditions -  °F | °C
As of 10:54 PM on Thursday 27 Nov 2014 (Local Time) from KAPN Reporting Station
Overcast Overcast  
Wind Chill:   Ceiling: 3700
Heat Index: 16°   Visibility: 10mi
Dew Point:   Wind: 9mph
Humidity: 71%   Direction: 280°W
Pressure: 30.26"   Gusts: NA
Location:  45.06°N, 83.9°W
Report Text: KAPN 280354Z AUTO 28008KT 10SM OVC037 M09/M13 A3026 RMK AO2 SLP260 T10891133
Loading
Personal Weather Stations






























Interactive Weather Map New forecast layout! Learn more

10-Day Weather Forecast

Advertisements
Track Severe Weather on mobile